sensor_id;sensor_type;location;lat;lon;timestamp;P1;durP1;ratioP1;P2;durP2;ratioP2
2023;SDS011;1016;48.770;9.154;2022-09-17T00:00:33;16.50;;;1.20;;
2023;SDS011;1016;48.770;9.154;2022-09-17T00:02:59;17.20;;;1.10;;
2023;SDS011;1016;48.770;9.154;2022-09-17T00:05:26;18.07;;;1.10;;
2023;SDS011;1016;48.770;9.154;2022-09-17T00:07:51;17.40;;;1.13;;
2023;SDS011;1016;48.770;9.154;2022-09-17T00:10:18;16.70;;;1.00;;
2023;SDS011;1016;48.770;9.154;2022-09-17T00:12:44;17.67;;;1.43;;
2023;SDS011;1016;48.770;9.154;2022-09-17T00:15:10;16.70;;;1.00;;
2023;SDS011;1016;48.770;9.154;2022-09-17T00:17:36;16.17;;;1.10;;
2023;SDS011;1016;48.770;9.154;2022-09-17T00:20:05;19.50;;;1.10;;
2023;SDS011;1016;48.770;9.154;2022-09-17T00:22:37;17.00;;;1.07;;
2023;SDS011;1016;48.770;9.154;2022-09-17T00:25:03;17.03;;;1.10;;
2023;SDS011;1016;48.770;9.154;2022-09-17T00:27:30;20.13;;;1.40;;
2023;SDS011;1016;48.770;9.154;2022-09-17T00:29:56;17.40;;;1.10;;
2023;SDS011;1016;48.770;9.154;2022-09-17T00:32:22;18.13;;;1.37;;
2023;SDS011;1016;48.770;9.154;2022-09-17T00:34:48;16.27;;;0.90;;
2023;SDS011;1016;48.770;9.154;2022-09-17T00:37:16;17.40;;;1.30;;
2023;SDS011;1016;48.770;9.154;2022-09-17T00:39:44;17.87;;;1.50;;
2023;SDS011;1016;48.770;9.154;2022-09-17T00:42:11;16.60;;;1.30;;
2023;SDS011;1016;48.770;9.154;2022-09-17T00:44:54;16.87;;;1.30;;
2023;SDS011;1016;48.770;9.154;2022-09-17T00:47:22;17.30;;;1.27;;
2023;SDS011;1016;48.770;9.154;2022-09-17T00:50:01;18.80;;;1.30;;
2023;SDS011;1016;48.770;9.154;2022-09-17T00:52:37;17.17;;;1.43;;
2023;SDS011;1016;48.770;9.154;2022-09-17T00:55:17;17.10;;;1.10;;
2023;SDS011;1016;48.770;9.154;2022-09-17T00:57:50;16.90;;;1.30;;
2023;SDS011;1016;48.770;9.154;2022-09-17T01:00:18;18.60;;;1.53;;
2023;SDS011;1016;48.770;9.154;2022-09-17T01:02:44;17.27;;;1.30;;
2023;SDS011;1016;48.770;9.154;2022-09-17T01:05:10;17.40;;;1.23;;
2023;SDS011;1016;48.770;9.154;2022-09-17T01:10:51;17.53;;;1.30;;
2023;SDS011;1016;48.770;9.154;2022-09-17T01:13:30;17.40;;;1.40;;
2023;SDS011;1016;48.770;9.154;2022-09-17T01:21:48;18.07;;;1.57;;
2023;SDS011;1016;48.770;9.154;2022-09-17T01:24:56;18.30;;;1.77;;
2023;SDS011;1016;48.770;9.154;2022-09-17T01:27:54;16.80;;;1.30;;
2023;SDS011;1016;48.770;9.154;2022-09-17T01:30:37;18.30;;;1.47;;
2023;SDS011;1016;48.770;9.154;2022-09-17T01:33:18;17.57;;;1.40;;
2023;SDS011;1016;48.770;9.154;2022-09-17T01:44:10;18.30;;;1.30;;
2023;SDS011;1016;48.770;9.154;2022-09-17T01:46:48;17.47;;;1.53;;
2023;SDS011;1016;48.770;9.154;2022-09-17T01:49:18;17.30;;;1.30;;
2023;SDS011;1016;48.770;9.154;2022-09-17T01:51:49;17.60;;;1.40;;
2023;SDS011;1016;48.770;9.154;2022-09-17T01:54:25;17.93;;;1.30;;
2023;SDS011;1016;48.770;9.154;2022-09-17T01:56:59;17.13;;;1.40;;
2023;SDS011;1016;48.770;9.154;2022-09-17T01:59:34;16.87;;;1.33;;
2023;SDS011;1016;48.770;9.154;2022-09-17T02:02:15;17.90;;;1.50;;
2023;SDS011;1016;48.770;9.154;2022-09-17T02:04:51;17.40;;;1.27;;
2023;SDS011;1016;48.770;9.154;2022-09-17T02:07:24;20.13;;;1.77;;
2023;SDS011;1016;48.770;9.154;2022-09-17T02:09:52;17.40;;;1.60;;
2023;SDS011;1016;48.770;9.154;2022-09-17T02:12:27;17.30;;;1.40;;
2023;SDS011;1016;48.770;9.154;2022-09-17T02:15:04;18.00;;;1.40;;
2023;SDS011;1016;48.770;9.154;2022-09-17T02:17:44;17.70;;;1.40;;
2023;SDS011;1016;48.770;9.154;2022-09-17T02:20:28;17.10;;;1.60;;
2023;SDS011;1016;48.770;9.154;2022-09-17T02:23:05;19.63;;;1.70;;
2023;SDS011;1016;48.770;9.154;2022-09-17T02:25:38;17.80;;;1.40;;
2023;SDS011;1016;48.770;9.154;2022-09-17T02:30:55;17.77;;;1.47;;
2023;SDS011;1016;48.770;9.154;2022-09-17T02:33:21;19.03;;;1.50;;
2023;SDS011;1016;48.770;9.154;2022-09-17T02:35:47;18.83;;;1.53;;
2023;SDS011;1016;48.770;9.154;2022-09-17T02:38:12;17.50;;;1.60;;
2023;SDS011;1016;48.770;9.154;2022-09-17T02:40:46;18.57;;;1.60;;
2023;SDS011;1016;48.770;9.154;2022-09-17T02:43:20;18.17;;;1.60;;
2023;SDS011;1016;48.770;9.154;2022-09-17T02:46:29;19.20;;;1.50;;
2023;SDS011;1016;48.770;9.154;2022-09-17T02:52:03;17.17;;;1.60;;
2023;SDS011;1016;48.770;9.154;2022-09-17T02:57:29;17.07;;;1.33;;
2023;SDS011;1016;48.770;9.154;2022-09-17T03:00:06;21.60;;;1.60;;
2023;SDS011;1016;48.770;9.154;2022-09-17T03:02:38;19.93;;;1.90;;
2023;SDS011;1016;48.770;9.154;2022-09-17T03:05:09;19.40;;;1.70;;
2023;SDS011;1016;48.770;9.154;2022-09-17T03:07:35;17.50;;;1.73;;
2023;SDS011;1016;48.770;9.154;2022-09-17T03:10:01;17.27;;;1.43;;
2023;SDS011;1016;48.770;9.154;2022-09-17T03:12:28;19.80;;;1.60;;
2023;SDS011;1016;48.770;9.154;2022-09-17T03:14:53;19.77;;;2.13;;
2023;SDS011;1016;48.770;9.154;2022-09-17T03:17:19;18.07;;;1.47;;
2023;SDS011;1016;48.770;9.154;2022-09-17T03:19:44;17.97;;;1.60;;
2023;SDS011;1016;48.770;9.154;2022-09-17T03:22:10;17.20;;;1.70;;
2023;SDS011;1016;48.770;9.154;2022-09-17T03:24:36;19.03;;;1.70;;
2023;SDS011;1016;48.770;9.154;2022-09-17T03:27:02;20.87;;;1.90;;
2023;SDS011;1016;48.770;9.154;2022-09-17T03:29:27;17.90;;;1.47;;
2023;SDS011;1016;48.770;9.154;2022-09-17T03:31:53;17.87;;;1.63;;
2023;SDS011;1016;48.770;9.154;2022-09-17T03:34:18;19.17;;;1.43;;
2023;SDS011;1016;48.770;9.154;2022-09-17T03:36:45;18.90;;;1.70;;
2023;SDS011;1016;48.770;9.154;2022-09-17T03:39:10;18.20;;;1.90;;
2023;SDS011;1016;48.770;9.154;2022-09-17T03:41:36;19.60;;;1.80;;
2023;SDS011;1016;48.770;9.154;2022-09-17T03:44:02;16.93;;;1.57;;
2023;SDS011;1016;48.770;9.154;2022-09-17T03:46:27;22.23;;;1.83;;
2023;SDS011;1016;48.770;9.154;2022-09-17T03:48:53;21.50;;;1.63;;
2023;SDS011;1016;48.770;9.154;2022-09-17T03:51:18;19.23;;;1.40;;
2023;SDS011;1016;48.770;9.154;2022-09-17T03:53:44;20.30;;;1.30;;
2023;SDS011;1016;48.770;9.154;2022-09-17T03:56:09;18.10;;;1.43;;
2023;SDS011;1016;48.770;9.154;2022-09-17T03:58:35;18.97;;;1.50;;
2023;SDS011;1016;48.770;9.154;2022-09-17T04:01:01;21.70;;;1.50;;
2023;SDS011;1016;48.770;9.154;2022-09-17T04:03:28;22.40;;;2.00;;
2023;SDS011;1016;48.770;9.154;2022-09-17T04:05:54;18.27;;;1.63;;
2023;SDS011;1016;48.770;9.154;2022-09-17T04:08:20;18.23;;;1.30;;
2023;SDS011;1016;48.770;9.154;2022-09-17T04:10:46;20.73;;;1.80;;
2023;SDS011;1016;48.770;9.154;2022-09-17T04:13:12;19.57;;;1.77;;
2023;SDS011;1016;48.770;9.154;2022-09-17T04:15:39;18.00;;;1.50;;
2023;SDS011;1016;48.770;9.154;2022-09-17T04:18:04;18.87;;;1.53;;
2023;SDS011;1016;48.770;9.154;2022-09-17T04:20:30;19.00;;;1.87;;
2023;SDS011;1016;48.770;9.154;2022-09-17T04:22:56;18.17;;;1.27;;
2023;SDS011;1016;48.770;9.154;2022-09-17T04:25:22;18.00;;;1.60;;
2023;SDS011;1016;48.770;9.154;2022-09-17T04:27:47;19.53;;;1.53;;
2023;SDS011;1016;48.770;9.154;2022-09-17T04:30:14;19.73;;;1.77;;
2023;SDS011;1016;48.770;9.154;2022-09-17T04:32:39;20.23;;;1.50;;
2023;SDS011;1016;48.770;9.154;2022-09-17T04:35:05;20.23;;;1.77;;
2023;SDS011;1016;48.770;9.154;2022-09-17T04:37:31;18.17;;;1.57;;
2023;SDS011;1016;48.770;9.154;2022-09-17T04:39:56;21.50;;;1.67;;
2023;SDS011;1016;48.770;9.154;2022-09-17T04:42:22;18.63;;;1.67;;
2023;SDS011;1016;48.770;9.154;2022-09-17T04:44:47;19.40;;;1.67;;
2023;SDS011;1016;48.770;9.154;2022-09-17T04:47:13;20.93;;;1.60;;
2023;SDS011;1016;48.770;9.154;2022-09-17T04:49:39;24.03;;;2.07;;
2023;SDS011;1016;48.770;9.154;2022-09-17T04:52:04;19.50;;;1.60;;
2023;SDS011;1016;48.770;9.154;2022-09-17T04:54:30;20.70;;;1.60;;
2023;SDS011;1016;48.770;9.154;2022-09-17T04:56:56;20.97;;;1.83;;
2023;SDS011;1016;48.770;9.154;2022-09-17T04:59:21;18.90;;;1.73;;
2023;SDS011;1016;48.770;9.154;2022-09-17T05:01:47;18.83;;;1.47;;
2023;SDS011;1016;48.770;9.154;2022-09-17T05:04:13;21.73;;;2.07;;
2023;SDS011;1016;48.770;9.154;2022-09-17T05:06:39;21.63;;;1.43;;
2023;SDS011;1016;48.770;9.154;2022-09-17T05:09:05;18.90;;;1.77;;
2023;SDS011;1016;48.770;9.154;2022-09-17T05:11:31;18.67;;;1.50;;
2023;SDS011;1016;48.770;9.154;2022-09-17T05:13:57;22.83;;;1.87;;
2023;SDS011;1016;48.770;9.154;2022-09-17T05:16:22;20.30;;;1.90;;
2023;SDS011;1016;48.770;9.154;2022-09-17T05:18:48;18.97;;;1.70;;
2023;SDS011;1016;48.770;9.154;2022-09-17T05:21:15;23.37;;;1.90;;
2023;SDS011;1016;48.770;9.154;2022-09-17T05:23:41;22.13;;;1.83;;
2023;SDS011;1016;48.770;9.154;2022-09-17T05:26:07;21.27;;;1.90;;
2023;SDS011;1016;48.770;9.154;2022-09-17T05:28:33;19.00;;;2.07;;
2023;SDS011;1016;48.770;9.154;2022-09-17T05:30:58;20.87;;;1.87;;
2023;SDS011;1016;48.770;9.154;2022-09-17T05:33:24;24.33;;;2.10;;
2023;SDS011;1016;48.770;9.154;2022-09-17T05:35:50;20.00;;;1.80;;
2023;SDS011;1016;48.770;9.154;2022-09-17T05:38:15;20.23;;;2.10;;
2023;SDS011;1016;48.770;9.154;2022-09-17T05:40:42;20.67;;;1.87;;
2023;SDS011;1016;48.770;9.154;2022-09-17T05:43:08;19.37;;;1.90;;
2023;SDS011;1016;48.770;9.154;2022-09-17T05:45:34;21.73;;;2.53;;
2023;SDS011;1016;48.770;9.154;2022-09-17T05:48:02;19.70;;;1.67;;
2023;SDS011;1016;48.770;9.154;2022-09-17T05:50:29;18.87;;;1.70;;
2023;SDS011;1016;48.770;9.154;2022-09-17T05:52:55;21.23;;;2.33;;
2023;SDS011;1016;48.770;9.154;2022-09-17T05:55:21;21.83;;;2.40;;
2023;SDS011;1016;48.770;9.154;2022-09-17T05:57:50;20.80;;;2.00;;
2023;SDS011;1016;48.770;9.154;2022-09-17T06:00:16;21.90;;;1.80;;
2023;SDS011;1016;48.770;9.154;2022-09-17T06:02:41;21.20;;;2.10;;
2023;SDS011;1016;48.770;9.154;2022-09-17T06:05:07;20.67;;;1.97;;
2023;SDS011;1016;48.770;9.154;2022-09-17T06:07:33;20.27;;;2.00;;
2023;SDS011;1016;48.770;9.154;2022-09-17T06:10:00;18.93;;;1.90;;
2023;SDS011;1016;48.770;9.154;2022-09-17T06:12:27;20.93;;;1.87;;
2023;SDS011;1016;48.770;9.154;2022-09-17T06:14:53;22.37;;;2.03;;
2023;SDS011;1016;48.770;9.154;2022-09-17T06:17:18;22.53;;;2.10;;
2023;SDS011;1016;48.770;9.154;2022-09-17T06:19:44;22.93;;;2.00;;
2023;SDS011;1016;48.770;9.154;2022-09-17T06:22:09;23.53;;;2.13;;
2023;SDS011;1016;48.770;9.154;2022-09-17T06:24:34;20.23;;;2.17;;
2023;SDS011;1016;48.770;9.154;2022-09-17T06:27:00;25.23;;;2.17;;
2023;SDS011;1016;48.770;9.154;2022-09-17T06:29:26;19.83;;;1.80;;
2023;SDS011;1016;48.770;9.154;2022-09-17T06:31:51;22.57;;;2.30;;
2023;SDS011;1016;48.770;9.154;2022-09-17T06:34:18;21.20;;;2.50;;
2023;SDS011;1016;48.770;9.154;2022-09-17T06:36:43;18.43;;;1.80;;
2023;SDS011;1016;48.770;9.154;2022-09-17T06:39:09;22.53;;;2.40;;
2023;SDS011;1016;48.770;9.154;2022-09-17T06:41:36;20.40;;;2.10;;
2023;SDS011;1016;48.770;9.154;2022-09-17T06:44:02;20.60;;;1.90;;
2023;SDS011;1016;48.770;9.154;2022-09-17T06:46:28;18.60;;;2.10;;
2023;SDS011;1016;48.770;9.154;2022-09-17T06:48:54;19.30;;;2.07;;
2023;SDS011;1016;48.770;9.154;2022-09-17T06:51:20;22.80;;;2.50;;
2023;SDS011;1016;48.770;9.154;2022-09-17T06:53:46;19.80;;;1.70;;
2023;SDS011;1016;48.770;9.154;2022-09-17T06:56:13;19.90;;;2.10;;
2023;SDS011;1016;48.770;9.154;2022-09-17T06:58:39;18.90;;;1.70;;
2023;SDS011;1016;48.770;9.154;2022-09-17T07:01:08;19.70;;;1.90;;
2023;SDS011;1016;48.770;9.154;2022-09-17T07:03:35;18.23;;;2.10;;
2023;SDS011;1016;48.770;9.154;2022-09-17T07:06:01;18.90;;;1.80;;
2023;SDS011;1016;48.770;9.154;2022-09-17T07:08:27;18.30;;;2.00;;
2023;SDS011;1016;48.770;9.154;2022-09-17T07:10:56;21.20;;;2.10;;
2023;SDS011;1016;48.770;9.154;2022-09-17T07:13:22;19.60;;;2.03;;
2023;SDS011;1016;48.770;9.154;2022-09-17T07:15:58;20.77;;;2.10;;
2023;SDS011;1016;48.770;9.154;2022-09-17T07:18:25;19.27;;;2.53;;
2023;SDS011;1016;48.770;9.154;2022-09-17T07:20:54;19.37;;;2.00;;
2023;SDS011;1016;48.770;9.154;2022-09-17T07:23:25;19.53;;;1.93;;
2023;SDS011;1016;48.770;9.154;2022-09-17T07:25:53;18.53;;;1.90;;
2023;SDS011;1016;48.770;9.154;2022-09-17T07:28:19;17.90;;;1.80;;
2023;SDS011;1016;48.770;9.154;2022-09-17T07:30:46;19.53;;;2.10;;
2023;SDS011;1016;48.770;9.154;2022-09-17T07:33:13;18.73;;;2.13;;
2023;SDS011;1016;48.770;9.154;2022-09-17T07:35:39;20.13;;;1.80;;
2023;SDS011;1016;48.770;9.154;2022-09-17T07:38:05;18.90;;;2.20;;
2023;SDS011;1016;48.770;9.154;2022-09-17T07:40:30;20.73;;;2.20;;
2023;SDS011;1016;48.770;9.154;2022-09-17T07:42:56;18.90;;;2.20;;
2023;SDS011;1016;48.770;9.154;2022-09-17T07:45:22;18.60;;;1.87;;
2023;SDS011;1016;48.770;9.154;2022-09-17T07:47:48;19.23;;;2.30;;
2023;SDS011;1016;48.770;9.154;2022-09-17T07:50:14;18.53;;;1.93;;
2023;SDS011;1016;48.770;9.154;2022-09-17T07:52:46;22.50;;;2.00;;
2023;SDS011;1016;48.770;9.154;2022-09-17T07:55:12;17.27;;;1.70;;
2023;SDS011;1016;48.770;9.154;2022-09-17T07:57:38;18.10;;;1.87;;
2023;SDS011;1016;48.770;9.154;2022-09-17T08:00:04;18.33;;;1.50;;
2023;SDS011;1016;48.770;9.154;2022-09-17T08:02:30;18.10;;;1.60;;
2023;SDS011;1016;48.770;9.154;2022-09-17T08:04:56;18.43;;;2.17;;
2023;SDS011;1016;48.770;9.154;2022-09-17T08:07:21;18.77;;;1.80;;
2023;SDS011;1016;48.770;9.154;2022-09-17T08:09:47;19.17;;;2.27;;
2023;SDS011;1016;48.770;9.154;2022-09-17T08:12:13;19.00;;;2.20;;
2023;SDS011;1016;48.770;9.154;2022-09-17T08:14:39;18.30;;;2.00;;
2023;SDS011;1016;48.770;9.154;2022-09-17T08:17:07;21.93;;;2.17;;
2023;SDS011;1016;48.770;9.154;2022-09-17T08:19:33;19.37;;;2.00;;
2023;SDS011;1016;48.770;9.154;2022-09-17T08:21:59;18.60;;;2.30;;
2023;SDS011;1016;48.770;9.154;2022-09-17T08:24:24;20.87;;;2.50;;
2023;SDS011;1016;48.770;9.154;2022-09-17T08:26:50;18.57;;;1.97;;
2023;SDS011;1016;48.770;9.154;2022-09-17T08:29:15;19.80;;;2.43;;
2023;SDS011;1016;48.770;9.154;2022-09-17T08:31:41;19.73;;;2.27;;
2023;SDS011;1016;48.770;9.154;2022-09-17T08:34:10;18.60;;;2.20;;
2023;SDS011;1016;48.770;9.154;2022-09-17T08:36:35;20.80;;;2.43;;
2023;SDS011;1016;48.770;9.154;2022-09-17T08:39:01;20.43;;;2.23;;
2023;SDS011;1016;48.770;9.154;2022-09-17T08:41:51;25.43;;;2.63;;
2023;SDS011;1016;48.770;9.154;2022-09-17T08:44:40;19.57;;;2.20;;
2023;SDS011;1016;48.770;9.154;2022-09-17T08:49:55;19.20;;;2.30;;
2023;SDS011;1016;48.770;9.154;2022-09-17T08:57:47;18.47;;;2.40;;
2023;SDS011;1016;48.770;9.154;2022-09-17T09:06:13;22.90;;;2.70;;
2023;SDS011;1016;48.770;9.154;2022-09-17T09:08:41;26.47;;;2.60;;
2023;SDS011;1016;48.770;9.154;2022-09-17T09:11:16;20.87;;;2.63;;
2023;SDS011;1016;48.770;9.154;2022-09-17T09:13:48;20.80;;;2.60;;
2023;SDS011;1016;48.770;9.154;2022-09-17T09:16:24;20.97;;;2.63;;
2023;SDS011;1016;48.770;9.154;2022-09-17T09:18:55;23.73;;;2.83;;
2023;SDS011;1016;48.770;9.154;2022-09-17T09:21:29;23.20;;;2.87;;
2023;SDS011;1016;48.770;9.154;2022-09-17T09:29:56;22.80;;;2.57;;
2023;SDS011;1016;48.770;9.154;2022-09-17T09:32:38;21.83;;;2.67;;
2023;SDS011;1016;48.770;9.154;2022-09-17T09:35:25;25.40;;;3.33;;
2023;SDS011;1016;48.770;9.154;2022-09-17T09:40:32;21.57;;;2.90;;
2023;SDS011;1016;48.770;9.154;2022-09-17T09:43:12;33.23;;;2.50;;
2023;SDS011;1016;48.770;9.154;2022-09-17T09:46:05;22.07;;;2.43;;
2023;SDS011;1016;48.770;9.154;2022-09-17T09:49:09;28.50;;;2.80;;
2023;SDS011;1016;48.770;9.154;2022-09-17T10:00:38;23.97;;;2.90;;
2023;SDS011;1016;48.770;9.154;2022-09-17T10:03:20;22.90;;;2.77;;
2023;SDS011;1016;48.770;9.154;2022-09-17T10:05:57;22.00;;;2.80;;
2023;SDS011;1016;48.770;9.154;2022-09-17T10:08:25;20.50;;;2.77;;
2023;SDS011;1016;48.770;9.154;2022-09-17T10:13:30;20.87;;;2.70;;
2023;SDS011;1016;48.770;9.154;2022-09-17T10:16:06;21.17;;;2.67;;
2023;SDS011;1016;48.770;9.154;2022-09-17T10:18:49;20.63;;;2.40;;
2023;SDS011;1016;48.770;9.154;2022-09-17T10:21:34;22.70;;;2.40;;
2023;SDS011;1016;48.770;9.154;2022-09-17T10:24:19;20.83;;;2.63;;
2023;SDS011;1016;48.770;9.154;2022-09-17T10:26:51;21.97;;;2.70;;
2023;SDS011;1016;48.770;9.154;2022-09-17T10:29:26;19.60;;;2.60;;
2023;SDS011;1016;48.770;9.154;2022-09-17T10:31:55;20.73;;;2.20;;
2023;SDS011;1016;48.770;9.154;2022-09-17T10:34:22;20.57;;;2.07;;
2023;SDS011;1016;48.770;9.154;2022-09-17T10:36:53;19.57;;;2.00;;
2023;SDS011;1016;48.770;9.154;2022-09-17T10:39:35;18.90;;;2.00;;
2023;SDS011;1016;48.770;9.154;2022-09-17T10:42:14;20.10;;;2.03;;
2023;SDS011;1016;48.770;9.154;2022-09-17T10:44:49;20.73;;;2.30;;
2023;SDS011;1016;48.770;9.154;2022-09-17T10:47:26;20.53;;;2.37;;
2023;SDS011;1016;48.770;9.154;2022-09-17T10:49:55;18.27;;;1.83;;
2023;SDS011;1016;48.770;9.154;2022-09-17T10:52:33;20.10;;;2.07;;
2023;SDS011;1016;48.770;9.154;2022-09-17T10:57:57;20.20;;;1.93;;
2023;SDS011;1016;48.770;9.154;2022-09-17T11:00:47;22.40;;;2.10;;
2023;SDS011;1016;48.770;9.154;2022-09-17T11:06:04;18.90;;;1.50;;
2023;SDS011;1016;48.770;9.154;2022-09-17T11:08:48;20.50;;;1.90;;
2023;SDS011;1016;48.770;9.154;2022-09-17T11:29:20;18.27;;;1.53;;
2023;SDS011;1016;48.770;9.154;2022-09-17T11:37:32;18.67;;;1.77;;
2023;SDS011;1016;48.770;9.154;2022-09-17T11:42:37;18.40;;;1.83;;
2023;SDS011;1016;48.770;9.154;2022-09-17T11:45:14;20.90;;;1.60;;
2023;SDS011;1016;48.770;9.154;2022-09-17T11:47:50;18.53;;;1.77;;
2023;SDS011;1016;48.770;9.154;2022-09-17T11:50:21;20.83;;;1.90;;
2023;SDS011;1016;48.770;9.154;2022-09-17T11:53:05;19.37;;;1.67;;
2023;SDS011;1016;48.770;9.154;2022-09-17T11:58:43;19.40;;;1.70;;
2023;SDS011;1016;48.770;9.154;2022-09-17T12:01:23;18.10;;;1.60;;
2023;SDS011;1016;48.770;9.154;2022-09-17T12:03:59;18.63;;;1.67;;
2023;SDS011;1016;48.770;9.154;2022-09-17T12:06:43;18.70;;;1.60;;
2023;SDS011;1016;48.770;9.154;2022-09-17T12:09:16;17.97;;;1.60;;
2023;SDS011;1016;48.770;9.154;2022-09-17T12:11:50;17.57;;;1.57;;
2023;SDS011;1016;48.770;9.154;2022-09-17T12:17:19;19.07;;;1.60;;
2023;SDS011;1016;48.770;9.154;2022-09-17T12:19:50;18.00;;;1.50;;
2023;SDS011;1016;48.770;9.154;2022-09-17T12:22:33;18.47;;;1.60;;
2023;SDS011;1016;48.770;9.154;2022-09-17T12:25:03;20.57;;;1.70;;
2023;SDS011;1016;48.770;9.154;2022-09-17T12:30:11;18.40;;;1.57;;
2023;SDS011;1016;48.770;9.154;2022-09-17T12:33:07;18.53;;;1.33;;
2023;SDS011;1016;48.770;9.154;2022-09-17T12:35:54;18.80;;;1.80;;
2023;SDS011;1016;48.770;9.154;2022-09-17T12:38:43;19.30;;;1.63;;
2023;SDS011;1016;48.770;9.154;2022-09-17T12:44:37;18.37;;;1.63;;
2023;SDS011;1016;48.770;9.154;2022-09-17T12:47:18;23.03;;;1.53;;
2023;SDS011;1016;48.770;9.154;2022-09-17T12:50:23;17.93;;;1.47;;
2023;SDS011;1016;48.770;9.154;2022-09-17T12:53:21;18.93;;;1.40;;
2023;SDS011;1016;48.770;9.154;2022-09-17T12:59:12;17.60;;;1.60;;
2023;SDS011;1016;48.770;9.154;2022-09-17T13:01:23;19.70;;;1.50;;
2023;SDS011;1016;48.770;9.154;2022-09-17T13:16:22;18.43;;;1.40;;
2023;SDS011;1016;48.770;9.154;2022-09-17T13:21:50;17.87;;;1.63;;
2023;SDS011;1016;48.770;9.154;2022-09-17T13:24:21;21.90;;;1.20;;
2023;SDS011;1016;48.770;9.154;2022-09-17T13:26:49;18.90;;;1.47;;
2023;SDS011;1016;48.770;9.154;2022-09-17T13:32:08;19.07;;;1.70;;
2023;SDS011;1016;48.770;9.154;2022-09-17T13:34:52;17.63;;;1.10;;
2023;SDS011;1016;48.770;9.154;2022-09-17T13:37:18;17.80;;;1.20;;
2023;SDS011;1016;48.770;9.154;2022-09-17T13:39:47;18.43;;;1.30;;
2023;SDS011;1016;48.770;9.154;2022-09-17T13:42:21;17.33;;;1.40;;
2023;SDS011;1016;48.770;9.154;2022-09-17T13:45:03;17.67;;;1.33;;
2023;SDS011;1016;48.770;9.154;2022-09-17T13:47:34;17.97;;;1.23;;
2023;SDS011;1016;48.770;9.154;2022-09-17T13:50:14;17.90;;;1.60;;
2023;SDS011;1016;48.770;9.154;2022-09-17T13:52:54;17.30;;;1.30;;
2023;SDS011;1016;48.770;9.154;2022-09-17T13:58:03;16.93;;;1.03;;
2023;SDS011;1016;48.770;9.154;2022-09-17T14:05:52;17.70;;;1.50;;
2023;SDS011;1016;48.770;9.154;2022-09-17T14:19:16;18.40;;;1.73;;
2023;SDS011;1016;48.770;9.154;2022-09-17T14:35:34;18.43;;;1.40;;
2023;SDS011;1016;48.770;9.154;2022-09-17T14:40:39;18.10;;;1.40;;
2023;SDS011;1016;48.770;9.154;2022-09-17T14:43:15;18.80;;;1.50;;
2023;SDS011;1016;48.770;9.154;2022-09-17T14:45:50;17.27;;;1.30;;
2023;SDS011;1016;48.770;9.154;2022-09-17T14:48:18;18.07;;;1.40;;
2023;SDS011;1016;48.770;9.154;2022-09-17T14:50:52;17.97;;;1.50;;
2023;SDS011;1016;48.770;9.154;2022-09-17T14:53:35;18.77;;;1.60;;
2023;SDS011;1016;48.770;9.154;2022-09-17T14:56:00;18.27;;;1.40;;
2023;SDS011;1016;48.770;9.154;2022-09-17T14:58:34;17.87;;;1.43;;
2023;SDS011;1016;48.770;9.154;2022-09-17T15:01:02;19.00;;;1.50;;
2023;SDS011;1016;48.770;9.154;2022-09-17T15:03:28;17.60;;;1.40;;
2023;SDS011;1016;48.770;9.154;2022-09-17T15:05:53;18.67;;;1.60;;
2023;SDS011;1016;48.770;9.154;2022-09-17T15:08:23;20.07;;;1.23;;
2023;SDS011;1016;48.770;9.154;2022-09-17T15:15:59;17.87;;;1.40;;
2023;SDS011;1016;48.770;9.154;2022-09-17T15:18:32;18.13;;;1.70;;
2023;SDS011;1016;48.770;9.154;2022-09-17T15:21:01;17.37;;;1.17;;
2023;SDS011;1016;48.770;9.154;2022-09-17T15:23:30;18.80;;;1.73;;
2023;SDS011;1016;48.770;9.154;2022-09-17T15:25:58;18.10;;;1.30;;
2023;SDS011;1016;48.770;9.154;2022-09-17T15:28:28;18.77;;;1.60;;
2023;SDS011;1016;48.770;9.154;2022-09-17T15:30:57;17.50;;;1.60;;
2023;SDS011;1016;48.770;9.154;2022-09-17T15:33:22;18.30;;;1.50;;
2023;SDS011;1016;48.770;9.154;2022-09-17T15:36:02;19.07;;;1.53;;
2023;SDS011;1016;48.770;9.154;2022-09-17T15:38:41;18.77;;;1.73;;
2023;SDS011;1016;48.770;9.154;2022-09-17T15:41:17;19.10;;;1.70;;
2023;SDS011;1016;48.770;9.154;2022-09-17T15:43:45;18.20;;;1.67;;
2023;SDS011;1016;48.770;9.154;2022-09-17T15:48:50;19.30;;;1.43;;
2023;SDS011;1016;48.770;9.154;2022-09-17T15:51:23;18.90;;;1.70;;
2023;SDS011;1016;48.770;9.154;2022-09-17T15:54:02;18.93;;;1.80;;
2023;SDS011;1016;48.770;9.154;2022-09-17T15:56:30;20.00;;;1.77;;
2023;SDS011;1016;48.770;9.154;2022-09-17T15:59:00;20.43;;;2.33;;
2023;SDS011;1016;48.770;9.154;2022-09-17T16:08:51;24.23;;;2.03;;
2023;SDS011;1016;48.770;9.154;2022-09-17T16:11:25;18.77;;;1.67;;
2023;SDS011;1016;48.770;9.154;2022-09-17T16:13:54;19.00;;;1.77;;
2023;SDS011;1016;48.770;9.154;2022-09-17T16:16:21;17.60;;;1.27;;
2023;SDS011;1016;48.770;9.154;2022-09-17T16:18:49;18.43;;;1.60;;
2023;SDS011;1016;48.770;9.154;2022-09-17T16:21:16;18.03;;;1.60;;
2023;SDS011;1016;48.770;9.154;2022-09-17T16:23:43;19.30;;;1.90;;
2023;SDS011;1016;48.770;9.154;2022-09-17T16:26:09;18.37;;;1.50;;
2023;SDS011;1016;48.770;9.154;2022-09-17T16:28:39;18.90;;;1.70;;
2023;SDS011;1016;48.770;9.154;2022-09-17T16:31:05;18.90;;;1.80;;
2023;SDS011;1016;48.770;9.154;2022-09-17T16:33:30;19.23;;;1.53;;
2023;SDS011;1016;48.770;9.154;2022-09-17T16:35:56;18.70;;;1.57;;
2023;SDS011;1016;48.770;9.154;2022-09-17T16:38:23;19.40;;;1.70;;
2023;SDS011;1016;48.770;9.154;2022-09-17T16:40:49;18.97;;;1.60;;
2023;SDS011;1016;48.770;9.154;2022-09-17T16:43:16;20.67;;;1.53;;
2023;SDS011;1016;48.770;9.154;2022-09-17T16:45:42;18.70;;;1.60;;
2023;SDS011;1016;48.770;9.154;2022-09-17T16:48:08;19.10;;;1.80;;
2023;SDS011;1016;48.770;9.154;2022-09-17T16:50:33;19.57;;;1.53;;
2023;SDS011;1016;48.770;9.154;2022-09-17T16:53:00;18.30;;;1.57;;
2023;SDS011;1016;48.770;9.154;2022-09-17T16:55:27;19.77;;;1.73;;
2023;SDS011;1016;48.770;9.154;2022-09-17T16:57:55;18.80;;;1.90;;
2023;SDS011;1016;48.770;9.154;2022-09-17T17:00:21;18.30;;;1.50;;
2023;SDS011;1016;48.770;9.154;2022-09-17T17:02:50;18.87;;;1.60;;
2023;SDS011;1016;48.770;9.154;2022-09-17T17:05:18;19.67;;;2.00;;
2023;SDS011;1016;48.770;9.154;2022-09-17T17:07:43;19.40;;;1.63;;
2023;SDS011;1016;48.770;9.154;2022-09-17T17:10:09;18.17;;;1.43;;
2023;SDS011;1016;48.770;9.154;2022-09-17T17:12:35;18.73;;;1.70;;
2023;SDS011;1016;48.770;9.154;2022-09-17T17:15:00;20.40;;;1.90;;
2023;SDS011;1016;48.770;9.154;2022-09-17T17:17:26;18.93;;;1.70;;
2023;SDS011;1016;48.770;9.154;2022-09-17T17:19:52;18.70;;;1.80;;
2023;SDS011;1016;48.770;9.154;2022-09-17T17:22:18;18.30;;;1.90;;
2023;SDS011;1016;48.770;9.154;2022-09-17T17:24:44;19.73;;;1.70;;
2023;SDS011;1016;48.770;9.154;2022-09-17T17:27:09;18.90;;;2.00;;
2023;SDS011;1016;48.770;9.154;2022-09-17T17:29:35;18.87;;;1.83;;
2023;SDS011;1016;48.770;9.154;2022-09-17T17:32:01;21.07;;;1.93;;
2023;SDS011;1016;48.770;9.154;2022-09-17T17:34:28;18.80;;;1.70;;
2023;SDS011;1016;48.770;9.154;2022-09-17T17:36:55;19.30;;;2.00;;
2023;SDS011;1016;48.770;9.154;2022-09-17T17:39:21;20.67;;;2.27;;
2023;SDS011;1016;48.770;9.154;2022-09-17T17:41:46;19.63;;;2.43;;
2023;SDS011;1016;48.770;9.154;2022-09-17T17:44:12;19.83;;;2.33;;
2023;SDS011;1016;48.770;9.154;2022-09-17T17:46:38;19.97;;;2.13;;
2023;SDS011;1016;48.770;9.154;2022-09-17T17:49:04;17.90;;;2.03;;
2023;SDS011;1016;48.770;9.154;2022-09-17T17:51:30;19.27;;;1.93;;
2023;SDS011;1016;48.770;9.154;2022-09-17T17:53:55;22.13;;;2.10;;
2023;SDS011;1016;48.770;9.154;2022-09-17T17:56:21;18.87;;;1.87;;
2023;SDS011;1016;48.770;9.154;2022-09-17T17:58:47;21.50;;;2.10;;
2023;SDS011;1016;48.770;9.154;2022-09-17T18:01:18;18.37;;;1.40;;
2023;SDS011;1016;48.770;9.154;2022-09-17T18:03:45;18.25;;;1.50;;
2023;SDS011;1016;48.770;9.154;2022-09-17T18:06:11;17.47;;;1.40;;
2023;SDS011;1016;48.770;9.154;2022-09-17T18:08:38;18.23;;;1.30;;
2023;SDS011;1016;48.770;9.154;2022-09-17T18:11:06;17.70;;;1.40;;
2023;SDS011;1016;48.770;9.154;2022-09-17T18:13:33;16.97;;;1.50;;